sensor_id;sensor_type;location;lat;lon;timestamp;P1;durP1;ratioP1;P2;durP2;ratioP2
22632;SDS011;11483;55.828;37.488;2024-01-15T00:00:19;18.87;;;7.33;;
22632;SDS011;11483;55.828;37.488;2024-01-15T00:02:45;16.97;;;5.90;;
22632;SDS011;11483;55.828;37.488;2024-01-15T00:05:12;13.80;;;6.40;;
22632;SDS011;11483;55.828;37.488;2024-01-15T00:07:38;15.87;;;4.97;;
22632;SDS011;11483;55.828;37.488;2024-01-15T00:10:04;14.00;;;5.83;;
22632;SDS011;11483;55.828;37.488;2024-01-15T00:12:31;11.70;;;6.27;;
22632;SDS011;11483;55.828;37.488;2024-01-15T00:14:56;12.13;;;5.40;;
22632;SDS011;11483;55.828;37.488;2024-01-15T00:17:22;17.47;;;6.10;;
22632;SDS011;11483;55.828;37.488;2024-01-15T00:19:48;17.30;;;5.83;;
22632;SDS011;11483;55.828;37.488;2024-01-15T00:22:14;21.00;;;6.97;;
22632;SDS011;11483;55.828;37.488;2024-01-15T00:24:40;10.50;;;5.73;;
22632;SDS011;11483;55.828;37.488;2024-01-15T00:27:06;18.77;;;8.27;;
22632;SDS011;11483;55.828;37.488;2024-01-15T00:29:32;16.23;;;6.60;;
22632;SDS011;11483;55.828;37.488;2024-01-15T00:31:58;15.80;;;6.40;;
22632;SDS011;11483;55.828;37.488;2024-01-15T00:34:23;17.53;;;5.97;;
22632;SDS011;11483;55.828;37.488;2024-01-15T00:36:49;16.07;;;6.47;;
22632;SDS011;11483;55.828;37.488;2024-01-15T00:39:15;20.13;;;6.70;;
22632;SDS011;11483;55.828;37.488;2024-01-15T00:41:42;14.20;;;6.43;;
22632;SDS011;11483;55.828;37.488;2024-01-15T00:44:07;13.50;;;5.80;;
22632;SDS011;11483;55.828;37.488;2024-01-15T00:46:36;17.13;;;6.03;;
22632;SDS011;11483;55.828;37.488;2024-01-15T00:49:11;15.87;;;6.10;;
22632;SDS011;11483;55.828;37.488;2024-01-15T00:51:38;13.90;;;5.77;;
22632;SDS011;11483;55.828;37.488;2024-01-15T00:54:04;18.73;;;6.43;;
22632;SDS011;11483;55.828;37.488;2024-01-15T00:56:30;15.33;;;6.57;;
22632;SDS011;11483;55.828;37.488;2024-01-15T00:58:56;18.20;;;5.73;;
22632;SDS011;11483;55.828;37.488;2024-01-15T01:01:22;18.00;;;7.43;;
22632;SDS011;11483;55.828;37.488;2024-01-15T01:03:48;21.47;;;6.23;;
22632;SDS011;11483;55.828;37.488;2024-01-15T01:06:14;17.43;;;6.97;;
22632;SDS011;11483;55.828;37.488;2024-01-15T01:08:40;12.80;;;5.83;;
22632;SDS011;11483;55.828;37.488;2024-01-15T01:11:06;19.63;;;6.67;;
22632;SDS011;11483;55.828;37.488;2024-01-15T01:13:32;22.87;;;8.63;;
22632;SDS011;11483;55.828;37.488;2024-01-15T01:15:58;14.23;;;6.40;;
22632;SDS011;11483;55.828;37.488;2024-01-15T01:18:24;16.30;;;6.33;;
22632;SDS011;11483;55.828;37.488;2024-01-15T01:20:50;16.27;;;5.93;;
22632;SDS011;11483;55.828;37.488;2024-01-15T01:23:16;24.43;;;7.83;;
22632;SDS011;11483;55.828;37.488;2024-01-15T01:25:42;17.47;;;8.13;;
22632;SDS011;11483;55.828;37.488;2024-01-15T01:28:08;13.17;;;6.07;;
22632;SDS011;11483;55.828;37.488;2024-01-15T01:30:34;15.30;;;5.27;;
22632;SDS011;11483;55.828;37.488;2024-01-15T01:33:00;17.30;;;7.80;;
22632;SDS011;11483;55.828;37.488;2024-01-15T01:35:26;15.67;;;5.87;;
22632;SDS011;11483;55.828;37.488;2024-01-15T01:37:52;15.03;;;5.97;;
22632;SDS011;11483;55.828;37.488;2024-01-15T01:40:18;16.73;;;7.50;;
22632;SDS011;11483;55.828;37.488;2024-01-15T01:42:44;15.13;;;6.50;;
22632;SDS011;11483;55.828;37.488;2024-01-15T01:45:10;15.43;;;5.97;;
22632;SDS011;11483;55.828;37.488;2024-01-15T01:47:37;23.27;;;7.47;;
22632;SDS011;11483;55.828;37.488;2024-01-15T01:50:03;16.97;;;6.83;;
22632;SDS011;11483;55.828;37.488;2024-01-15T01:52:30;12.00;;;5.77;;
22632;SDS011;11483;55.828;37.488;2024-01-15T01:54:57;18.73;;;7.47;;
22632;SDS011;11483;55.828;37.488;2024-01-15T01:57:25;18.53;;;8.30;;
22632;SDS011;11483;55.828;37.488;2024-01-15T01:59:51;19.33;;;8.23;;
22632;SDS011;11483;55.828;37.488;2024-01-15T02:02:18;15.57;;;6.07;;
22632;SDS011;11483;55.828;37.488;2024-01-15T02:04:45;22.83;;;9.30;;
22632;SDS011;11483;55.828;37.488;2024-01-15T02:07:13;14.70;;;5.87;;
22632;SDS011;11483;55.828;37.488;2024-01-15T02:09:41;18.40;;;7.83;;
22632;SDS011;11483;55.828;37.488;2024-01-15T02:12:07;12.83;;;6.77;;
22632;SDS011;11483;55.828;37.488;2024-01-15T02:14:33;18.73;;;8.17;;
22632;SDS011;11483;55.828;37.488;2024-01-15T02:16:59;14.30;;;6.07;;
22632;SDS011;11483;55.828;37.488;2024-01-15T02:19:25;20.60;;;7.80;;
22632;SDS011;11483;55.828;37.488;2024-01-15T02:21:51;20.50;;;8.67;;
22632;SDS011;11483;55.828;37.488;2024-01-15T02:24:17;23.03;;;8.50;;
22632;SDS011;11483;55.828;37.488;2024-01-15T02:26:43;18.30;;;8.10;;
22632;SDS011;11483;55.828;37.488;2024-01-15T02:29:09;19.13;;;7.53;;
22632;SDS011;11483;55.828;37.488;2024-01-15T02:31:36;20.03;;;8.93;;
22632;SDS011;11483;55.828;37.488;2024-01-15T02:34:02;17.30;;;6.97;;
22632;SDS011;11483;55.828;37.488;2024-01-15T02:36:28;21.77;;;8.53;;
22632;SDS011;11483;55.828;37.488;2024-01-15T02:38:54;19.97;;;8.63;;
22632;SDS011;11483;55.828;37.488;2024-01-15T02:41:20;24.43;;;8.80;;
22632;SDS011;11483;55.828;37.488;2024-01-15T02:43:46;18.97;;;7.70;;
22632;SDS011;11483;55.828;37.488;2024-01-15T02:46:12;22.43;;;7.87;;
22632;SDS011;11483;55.828;37.488;2024-01-15T02:48:38;16.33;;;7.90;;
22632;SDS011;11483;55.828;37.488;2024-01-15T02:51:04;25.20;;;7.60;;
22632;SDS011;11483;55.828;37.488;2024-01-15T02:53:30;19.23;;;8.00;;
22632;SDS011;11483;55.828;37.488;2024-01-15T02:55:56;19.93;;;8.53;;
22632;SDS011;11483;55.828;37.488;2024-01-15T02:58:22;21.90;;;8.80;;
22632;SDS011;11483;55.828;37.488;2024-01-15T03:00:48;25.63;;;8.80;;
22632;SDS011;11483;55.828;37.488;2024-01-15T03:03:13;21.30;;;9.33;;
22632;SDS011;11483;55.828;37.488;2024-01-15T03:05:39;24.23;;;10.17;;
22632;SDS011;11483;55.828;37.488;2024-01-15T03:08:05;24.30;;;8.77;;
22632;SDS011;11483;55.828;37.488;2024-01-15T03:10:31;19.23;;;8.17;;
22632;SDS011;11483;55.828;37.488;2024-01-15T03:12:57;21.30;;;9.73;;
22632;SDS011;11483;55.828;37.488;2024-01-15T03:15:23;19.73;;;8.10;;
22632;SDS011;11483;55.828;37.488;2024-01-15T03:17:49;23.27;;;9.97;;
22632;SDS011;11483;55.828;37.488;2024-01-15T03:20:15;23.20;;;9.50;;
22632;SDS011;11483;55.828;37.488;2024-01-15T03:22:41;25.77;;;10.20;;
22632;SDS011;11483;55.828;37.488;2024-01-15T03:25:07;20.87;;;8.93;;
22632;SDS011;11483;55.828;37.488;2024-01-15T03:27:33;23.07;;;8.27;;
22632;SDS011;11483;55.828;37.488;2024-01-15T03:29:59;25.37;;;9.33;;
22632;SDS011;11483;55.828;37.488;2024-01-15T03:32:25;24.60;;;9.50;;
22632;SDS011;11483;55.828;37.488;2024-01-15T03:34:51;24.73;;;11.00;;
22632;SDS011;11483;55.828;37.488;2024-01-15T03:37:17;26.63;;;10.07;;
22632;SDS011;11483;55.828;37.488;2024-01-15T03:39:43;32.73;;;10.30;;
22632;SDS011;11483;55.828;37.488;2024-01-15T03:42:09;26.10;;;10.70;;
22632;SDS011;11483;55.828;37.488;2024-01-15T03:44:35;23.13;;;9.53;;
22632;SDS011;11483;55.828;37.488;2024-01-15T03:47:01;22.23;;;8.87;;
22632;SDS011;11483;55.828;37.488;2024-01-15T03:49:28;19.90;;;9.17;;
22632;SDS011;11483;55.828;37.488;2024-01-15T03:51:54;25.53;;;10.57;;
22632;SDS011;11483;55.828;37.488;2024-01-15T03:54:21;21.13;;;9.03;;
22632;SDS011;11483;55.828;37.488;2024-01-15T03:56:47;27.53;;;10.63;;
22632;SDS011;11483;55.828;37.488;2024-01-15T03:59:13;22.20;;;9.13;;
22632;SDS011;11483;55.828;37.488;2024-01-15T04:01:38;19.43;;;8.77;;
22632;SDS011;11483;55.828;37.488;2024-01-15T04:04:04;23.93;;;9.97;;
22632;SDS011;11483;55.828;37.488;2024-01-15T04:06:30;20.03;;;8.77;;
22632;SDS011;11483;55.828;37.488;2024-01-15T04:08:56;26.63;;;9.83;;
22632;SDS011;11483;55.828;37.488;2024-01-15T04:11:22;24.97;;;10.60;;
22632;SDS011;11483;55.828;37.488;2024-01-15T04:13:48;23.30;;;10.10;;
22632;SDS011;11483;55.828;37.488;2024-01-15T04:16:14;21.23;;;8.40;;
22632;SDS011;11483;55.828;37.488;2024-01-15T04:18:40;16.33;;;6.67;;
22632;SDS011;11483;55.828;37.488;2024-01-15T04:21:06;19.03;;;8.87;;
22632;SDS011;11483;55.828;37.488;2024-01-15T04:23:35;26.77;;;9.33;;
22632;SDS011;11483;55.828;37.488;2024-01-15T04:26:01;20.27;;;8.17;;
22632;SDS011;11483;55.828;37.488;2024-01-15T04:28:26;23.00;;;8.13;;
22632;SDS011;11483;55.828;37.488;2024-01-15T04:30:52;23.17;;;9.00;;
22632;SDS011;11483;55.828;37.488;2024-01-15T04:33:18;19.63;;;7.30;;
22632;SDS011;11483;55.828;37.488;2024-01-15T04:35:44;24.33;;;9.00;;
22632;SDS011;11483;55.828;37.488;2024-01-15T04:38:10;23.93;;;10.63;;
22632;SDS011;11483;55.828;37.488;2024-01-15T04:40:36;26.03;;;10.30;;
22632;SDS011;11483;55.828;37.488;2024-01-15T04:43:02;23.70;;;8.50;;
22632;SDS011;11483;55.828;37.488;2024-01-15T04:45:28;22.20;;;8.77;;
22632;SDS011;11483;55.828;37.488;2024-01-15T04:47:55;28.90;;;9.60;;
22632;SDS011;11483;55.828;37.488;2024-01-15T04:50:22;22.43;;;8.33;;
22632;SDS011;11483;55.828;37.488;2024-01-15T04:52:48;24.33;;;9.37;;
22632;SDS011;11483;55.828;37.488;2024-01-15T04:55:14;26.20;;;11.30;;
22632;SDS011;11483;55.828;37.488;2024-01-15T04:57:40;19.93;;;9.00;;
22632;SDS011;11483;55.828;37.488;2024-01-15T05:00:06;23.37;;;8.07;;
22632;SDS011;11483;55.828;37.488;2024-01-15T05:02:33;27.07;;;10.37;;
22632;SDS011;11483;55.828;37.488;2024-01-15T05:04:59;19.13;;;8.43;;
22632;SDS011;11483;55.828;37.488;2024-01-15T05:07:25;32.40;;;10.23;;
22632;SDS011;11483;55.828;37.488;2024-01-15T05:09:51;17.70;;;8.57;;
22632;SDS011;11483;55.828;37.488;2024-01-15T05:12:17;26.63;;;9.70;;
22632;SDS011;11483;55.828;37.488;2024-01-15T05:14:43;21.23;;;8.17;;
22632;SDS011;11483;55.828;37.488;2024-01-15T05:17:08;26.17;;;9.87;;
22632;SDS011;11483;55.828;37.488;2024-01-15T05:19:34;27.37;;;8.77;;
22632;SDS011;11483;55.828;37.488;2024-01-15T05:22:00;25.03;;;10.90;;
22632;SDS011;11483;55.828;37.488;2024-01-15T05:24:26;24.83;;;10.10;;
22632;SDS011;11483;55.828;37.488;2024-01-15T05:26:52;22.10;;;8.40;;
22632;SDS011;11483;55.828;37.488;2024-01-15T05:29:18;25.03;;;9.73;;
22632;SDS011;11483;55.828;37.488;2024-01-15T05:31:44;28.03;;;9.83;;
22632;SDS011;11483;55.828;37.488;2024-01-15T05:34:10;23.57;;;8.80;;
22632;SDS011;11483;55.828;37.488;2024-01-15T05:36:36;23.93;;;9.43;;
22632;SDS011;11483;55.828;37.488;2024-01-15T05:39:02;27.70;;;12.33;;
22632;SDS011;11483;55.828;37.488;2024-01-15T05:41:28;23.90;;;8.43;;
22632;SDS011;11483;55.828;37.488;2024-01-15T05:43:54;29.33;;;11.03;;
22632;SDS011;11483;55.828;37.488;2024-01-15T05:46:22;28.10;;;10.63;;
22632;SDS011;11483;55.828;37.488;2024-01-15T05:48:48;23.27;;;10.37;;
22632;SDS011;11483;55.828;37.488;2024-01-15T05:51:14;30.40;;;10.47;;
22632;SDS011;11483;55.828;37.488;2024-01-15T05:53:39;29.53;;;10.17;;
22632;SDS011;11483;55.828;37.488;2024-01-15T05:56:07;24.73;;;10.50;;
22632;SDS011;11483;55.828;37.488;2024-01-15T05:58:35;21.17;;;9.03;;
22632;SDS011;11483;55.828;37.488;2024-01-15T06:01:01;25.67;;;11.43;;
22632;SDS011;11483;55.828;37.488;2024-01-15T06:03:27;23.60;;;9.60;;
22632;SDS011;11483;55.828;37.488;2024-01-15T06:05:53;26.30;;;10.67;;
22632;SDS011;11483;55.828;37.488;2024-01-15T06:08:19;27.50;;;11.47;;
22632;SDS011;11483;55.828;37.488;2024-01-15T06:10:46;32.07;;;13.83;;
22632;SDS011;11483;55.828;37.488;2024-01-15T06:13:12;27.40;;;12.47;;
22632;SDS011;11483;55.828;37.488;2024-01-15T06:15:38;31.07;;;12.70;;
22632;SDS011;11483;55.828;37.488;2024-01-15T06:18:04;28.23;;;12.37;;
22632;SDS011;11483;55.828;37.488;2024-01-15T06:20:30;28.63;;;11.40;;
22632;SDS011;11483;55.828;37.488;2024-01-15T06:22:56;29.77;;;12.13;;
22632;SDS011;11483;55.828;37.488;2024-01-15T06:25:22;28.20;;;12.63;;
22632;SDS011;11483;55.828;37.488;2024-01-15T06:27:48;31.60;;;11.17;;
22632;SDS011;11483;55.828;37.488;2024-01-15T06:30:14;28.90;;;10.83;;
22632;SDS011;11483;55.828;37.488;2024-01-15T06:32:40;26.87;;;8.73;;
22632;SDS011;11483;55.828;37.488;2024-01-15T06:35:06;37.03;;;11.67;;
22632;SDS011;11483;55.828;37.488;2024-01-15T06:37:32;26.67;;;12.00;;
22632;SDS011;11483;55.828;37.488;2024-01-15T06:39:58;29.57;;;11.53;;
22632;SDS011;11483;55.828;37.488;2024-01-15T06:42:24;26.93;;;11.63;;
22632;SDS011;11483;55.828;37.488;2024-01-15T06:44:50;32.50;;;11.50;;
22632;SDS011;11483;55.828;37.488;2024-01-15T06:47:17;32.53;;;12.00;;
22632;SDS011;11483;55.828;37.488;2024-01-15T06:49:44;26.03;;;10.23;;
22632;SDS011;11483;55.828;37.488;2024-01-15T06:52:10;27.90;;;11.53;;
22632;SDS011;11483;55.828;37.488;2024-01-15T06:54:37;29.30;;;11.83;;
22632;SDS011;11483;55.828;37.488;2024-01-15T06:57:03;36.10;;;14.13;;
22632;SDS011;11483;55.828;37.488;2024-01-15T06:59:31;29.57;;;10.97;;
22632;SDS011;11483;55.828;37.488;2024-01-15T07:01:58;26.30;;;10.40;;
22632;SDS011;11483;55.828;37.488;2024-01-15T07:04:24;32.97;;;13.13;;
22632;SDS011;11483;55.828;37.488;2024-01-15T07:06:50;31.30;;;12.03;;
22632;SDS011;11483;55.828;37.488;2024-01-15T07:09:16;28.73;;;12.67;;
22632;SDS011;11483;55.828;37.488;2024-01-15T07:11:45;29.70;;;12.47;;
22632;SDS011;11483;55.828;37.488;2024-01-15T07:14:12;26.70;;;11.27;;
22632;SDS011;11483;55.828;37.488;2024-01-15T07:16:38;25.43;;;10.53;;
22632;SDS011;11483;55.828;37.488;2024-01-15T07:19:04;28.27;;;10.73;;
22632;SDS011;11483;55.828;37.488;2024-01-15T07:21:31;31.17;;;10.50;;
22632;SDS011;11483;55.828;37.488;2024-01-15T07:23:57;29.63;;;12.23;;
22632;SDS011;11483;55.828;37.488;2024-01-15T07:26:23;27.07;;;11.07;;
22632;SDS011;11483;55.828;37.488;2024-01-15T07:28:48;24.33;;;10.27;;
22632;SDS011;11483;55.828;37.488;2024-01-15T07:31:17;28.70;;;12.83;;
22632;SDS011;11483;55.828;37.488;2024-01-15T07:33:44;27.47;;;11.37;;
22632;SDS011;11483;55.828;37.488;2024-01-15T07:36:10;28.30;;;10.43;;
22632;SDS011;11483;55.828;37.488;2024-01-15T07:38:36;27.80;;;11.70;;
22632;SDS011;11483;55.828;37.488;2024-01-15T07:41:02;29.53;;;12.37;;
22632;SDS011;11483;55.828;37.488;2024-01-15T07:43:29;26.87;;;10.77;;
22632;SDS011;11483;55.828;37.488;2024-01-15T07:45:55;22.57;;;9.20;;
22632;SDS011;11483;55.828;37.488;2024-01-15T07:48:21;29.13;;;12.20;;
22632;SDS011;11483;55.828;37.488;2024-01-15T07:50:46;24.00;;;10.83;;
22632;SDS011;11483;55.828;37.488;2024-01-15T07:53:12;22.87;;;9.83;;
22632;SDS011;11483;55.828;37.488;2024-01-15T07:55:38;24.10;;;10.50;;
22632;SDS011;11483;55.828;37.488;2024-01-15T07:58:04;30.13;;;11.73;;
22632;SDS011;11483;55.828;37.488;2024-01-15T08:00:30;19.77;;;8.90;;
22632;SDS011;11483;55.828;37.488;2024-01-15T08:02:56;24.27;;;9.70;;
22632;SDS011;11483;55.828;37.488;2024-01-15T08:05:22;22.63;;;10.27;;
22632;SDS011;11483;55.828;37.488;2024-01-15T08:07:48;22.90;;;10.77;;
22632;SDS011;11483;55.828;37.488;2024-01-15T08:10:14;22.07;;;10.13;;
22632;SDS011;11483;55.828;37.488;2024-01-15T08:12:40;28.97;;;10.87;;
22632;SDS011;11483;55.828;37.488;2024-01-15T08:15:06;29.00;;;13.80;;
22632;SDS011;11483;55.828;37.488;2024-01-15T08:17:32;31.65;;;13.88;;
22632;SDS011;11483;55.828;37.488;2024-01-15T08:32:10;23.77;;;10.67;;
22632;SDS011;11483;55.828;37.488;2024-01-15T08:34:39;24.57;;;10.20;;
22632;SDS011;11483;55.828;37.488;2024-01-15T08:37:05;21.40;;;11.00;;
22632;SDS011;11483;55.828;37.488;2024-01-15T08:39:31;22.17;;;9.83;;
22632;SDS011;11483;55.828;37.488;2024-01-15T08:41:57;23.70;;;10.53;;
22632;SDS011;11483;55.828;37.488;2024-01-15T08:44:23;23.30;;;9.03;;
22632;SDS011;11483;55.828;37.488;2024-01-15T08:46:49;28.87;;;11.97;;
22632;SDS011;11483;55.828;37.488;2024-01-15T08:49:15;20.07;;;8.27;;
22632;SDS011;11483;55.828;37.488;2024-01-15T08:51:41;23.43;;;9.53;;
22632;SDS011;11483;55.828;37.488;2024-01-15T08:54:07;23.97;;;9.37;;
22632;SDS011;11483;55.828;37.488;2024-01-15T08:56:33;24.37;;;10.57;;
22632;SDS011;11483;55.828;37.488;2024-01-15T08:59:00;21.73;;;10.17;;
22632;SDS011;11483;55.828;37.488;2024-01-15T09:01:26;24.77;;;11.60;;
22632;SDS011;11483;55.828;37.488;2024-01-15T09:03:52;24.00;;;10.90;;
22632;SDS011;11483;55.828;37.488;2024-01-15T09:06:18;26.93;;;10.00;;
22632;SDS011;11483;55.828;37.488;2024-01-15T09:08:45;26.17;;;10.50;;
22632;SDS011;11483;55.828;37.488;2024-01-15T09:11:11;26.33;;;12.10;;
22632;SDS011;11483;55.828;37.488;2024-01-15T09:13:37;26.90;;;11.57;;
22632;SDS011;11483;55.828;37.488;2024-01-15T09:16:03;22.33;;;9.80;;
22632;SDS011;11483;55.828;37.488;2024-01-15T09:18:29;28.43;;;11.30;;
22632;SDS011;11483;55.828;37.488;2024-01-15T09:20:55;24.90;;;10.63;;
22632;SDS011;11483;55.828;37.488;2024-01-15T09:23:21;24.40;;;10.83;;
22632;SDS011;11483;55.828;37.488;2024-01-15T09:25:47;24.43;;;10.03;;
22632;SDS011;11483;55.828;37.488;2024-01-15T09:28:13;28.67;;;11.80;;
22632;SDS011;11483;55.828;37.488;2024-01-15T09:30:39;26.87;;;10.63;;
22632;SDS011;11483;55.828;37.488;2024-01-15T09:33:05;29.43;;;9.63;;
22632;SDS011;11483;55.828;37.488;2024-01-15T09:35:31;25.63;;;10.67;;
22632;SDS011;11483;55.828;37.488;2024-01-15T09:37:57;25.03;;;10.70;;
22632;SDS011;11483;55.828;37.488;2024-01-15T09:40:23;25.37;;;11.57;;
22632;SDS011;11483;55.828;37.488;2024-01-15T09:42:54;24.33;;;10.93;;
22632;SDS011;11483;55.828;37.488;2024-01-15T09:45:20;25.90;;;9.70;;
22632;SDS011;11483;55.828;37.488;2024-01-15T09:47:46;29.30;;;10.40;;
22632;SDS011;11483;55.828;37.488;2024-01-15T09:50:13;25.00;;;11.50;;
22632;SDS011;11483;55.828;37.488;2024-01-15T09:52:42;23.57;;;10.90;;
22632;SDS011;11483;55.828;37.488;2024-01-15T09:55:10;23.43;;;10.13;;
22632;SDS011;11483;55.828;37.488;2024-01-15T09:57:38;25.10;;;11.30;;
22632;SDS011;11483;55.828;37.488;2024-01-15T10:00:05;26.93;;;11.00;;
22632;SDS011;11483;55.828;37.488;2024-01-15T10:02:32;24.03;;;10.83;;
22632;SDS011;11483;55.828;37.488;2024-01-15T10:05:00;23.80;;;9.00;;
22632;SDS011;11483;55.828;37.488;2024-01-15T10:07:26;26.27;;;12.77;;
22632;SDS011;11483;55.828;37.488;2024-01-15T10:09:53;26.03;;;11.87;;
22632;SDS011;11483;55.828;37.488;2024-01-15T10:12:19;27.10;;;11.10;;
22632;SDS011;11483;55.828;37.488;2024-01-15T10:14:50;29.30;;;11.40;;
22632;SDS011;11483;55.828;37.488;2024-01-15T10:17:16;26.67;;;11.30;;
22632;SDS011;11483;55.828;37.488;2024-01-15T10:19:42;24.30;;;10.43;;
22632;SDS011;11483;55.828;37.488;2024-01-15T10:22:10;25.30;;;11.13;;
22632;SDS011;11483;55.828;37.488;2024-01-15T10:24:36;21.67;;;9.93;;
22632;SDS011;11483;55.828;37.488;2024-01-15T10:27:08;24.20;;;11.40;;
22632;SDS011;11483;55.828;37.488;2024-01-15T10:29:35;28.17;;;13.07;;
22632;SDS011;11483;55.828;37.488;2024-01-15T10:32:02;28.23;;;10.90;;
22632;SDS011;11483;55.828;37.488;2024-01-15T10:34:31;27.90;;;11.50;;
22632;SDS011;11483;55.828;37.488;2024-01-15T10:36:57;23.10;;;11.97;;
22632;SDS011;11483;55.828;37.488;2024-01-15T10:39:23;19.90;;;9.30;;
22632;SDS011;11483;55.828;37.488;2024-01-15T10:41:50;25.97;;;11.37;;
22632;SDS011;11483;55.828;37.488;2024-01-15T10:44:16;31.33;;;12.40;;
22632;SDS011;11483;55.828;37.488;2024-01-15T10:46:43;23.97;;;11.77;;
22632;SDS011;11483;55.828;37.488;2024-01-15T10:49:11;24.07;;;10.80;;
22632;SDS011;11483;55.828;37.488;2024-01-15T10:51:37;26.20;;;11.23;;
22632;SDS011;11483;55.828;37.488;2024-01-15T10:54:04;24.30;;;11.10;;
22632;SDS011;11483;55.828;37.488;2024-01-15T10:56:31;20.57;;;9.57;;
22632;SDS011;11483;55.828;37.488;2024-01-15T10:58:58;27.33;;;11.33;;
22632;SDS011;11483;55.828;37.488;2024-01-15T11:01:25;27.67;;;11.70;;
22632;SDS011;11483;55.828;37.488;2024-01-15T11:03:51;24.13;;;10.03;;
22632;SDS011;11483;55.828;37.488;2024-01-15T11:06:19;26.77;;;11.37;;
22632;SDS011;11483;55.828;37.488;2024-01-15T11:08:48;27.93;;;10.00;;
22632;SDS011;11483;55.828;37.488;2024-01-15T11:11:18;23.83;;;10.60;;
22632;SDS011;11483;55.828;37.488;2024-01-15T11:13:49;25.90;;;10.60;;
22632;SDS011;11483;55.828;37.488;2024-01-15T11:16:17;23.57;;;11.00;;
22632;SDS011;11483;55.828;37.488;2024-01-15T11:19:01;26.27;;;11.50;;
22632;SDS011;11483;55.828;37.488;2024-01-15T11:21:28;22.00;;;9.33;;
22632;SDS011;11483;55.828;37.488;2024-01-15T11:23:58;23.77;;;10.40;;
22632;SDS011;11483;55.828;37.488;2024-01-15T11:28:56;27.90;;;12.10;;
22632;SDS011;11483;55.828;37.488;2024-01-15T11:34:06;25.40;;;10.40;;
22632;SDS011;11483;55.828;37.488;2024-01-15T11:41:58;25.77;;;10.23;;
22632;SDS011;11483;55.828;37.488;2024-01-15T11:44:25;31.47;;;12.57;;
22632;SDS011;11483;55.828;37.488;2024-01-15T11:52:13;27.37;;;11.87;;
22632;SDS011;11483;55.828;37.488;2024-01-15T11:54:44;21.67;;;10.23;;
22632;SDS011;11483;55.828;37.488;2024-01-15T11:57:41;26.10;;;10.67;;
22632;SDS011;11483;55.828;37.488;2024-01-15T12:00:10;25.30;;;11.30;;
22632;SDS011;11483;55.828;37.488;2024-01-15T12:02:37;29.27;;;11.43;;
22632;SDS011;11483;55.828;37.488;2024-01-15T12:05:05;20.80;;;8.83;;
22632;SDS011;11483;55.828;37.488;2024-01-15T12:07:32;26.17;;;11.00;;
22632;SDS011;11483;55.828;37.488;2024-01-15T12:09:59;25.53;;;12.67;;
22632;SDS011;11483;55.828;37.488;2024-01-15T12:12:27;27.07;;;12.43;;
22632;SDS011;11483;55.828;37.488;2024-01-15T12:15:14;24.10;;;10.30;;
22632;SDS011;11483;55.828;37.488;2024-01-15T12:17:40;23.57;;;10.97;;
22632;SDS011;11483;55.828;37.488;2024-01-15T12:20:06;26.77;;;11.33;;
22632;SDS011;11483;55.828;37.488;2024-01-15T12:22:33;31.87;;;10.73;;
22632;SDS011;11483;55.828;37.488;2024-01-15T12:24:59;22.77;;;11.17;;
22632;SDS011;11483;55.828;37.488;2024-01-15T12:27:25;25.67;;;11.43;;
22632;SDS011;11483;55.828;37.488;2024-01-15T12:29:52;25.40;;;10.20;;
22632;SDS011;11483;55.828;37.488;2024-01-15T12:32:19;21.57;;;10.07;;
22632;SDS011;11483;55.828;37.488;2024-01-15T12:34:46;25.27;;;12.13;;
22632;SDS011;11483;55.828;37.488;2024-01-15T12:37:14;28.17;;;13.13;;
22632;SDS011;11483;55.828;37.488;2024-01-15T12:39:43;27.00;;;11.93;;
22632;SDS011;11483;55.828;37.488;2024-01-15T12:42:09;29.03;;;12.23;;
22632;SDS011;11483;55.828;37.488;2024-01-15T12:44:35;30.23;;;12.40;;
22632;SDS011;11483;55.828;37.488;2024-01-15T12:47:06;28.37;;;13.03;;
22632;SDS011;11483;55.828;37.488;2024-01-15T12:49:33;27.37;;;11.90;;
22632;SDS011;11483;55.828;37.488;2024-01-15T12:52:01;26.83;;;12.37;;
22632;SDS011;11483;55.828;37.488;2024-01-15T12:54:27;25.70;;;11.33;;
22632;SDS011;11483;55.828;37.488;2024-01-15T12:56:53;26.40;;;11.87;;
22632;SDS011;11483;55.828;37.488;2024-01-15T12:59:19;24.17;;;11.73;;
22632;SDS011;11483;55.828;37.488;2024-01-15T13:01:45;27.17;;;13.70;;
22632;SDS011;11483;55.828;37.488;2024-01-15T13:04:12;29.10;;;11.63;;
22632;SDS011;11483;55.828;37.488;2024-01-15T13:06:49;24.67;;;11.50;;
22632;SDS011;11483;55.828;37.488;2024-01-15T13:09:16;30.93;;;13.00;;
22632;SDS011;11483;55.828;37.488;2024-01-15T13:11:45;27.53;;;12.40;;
22632;SDS011;11483;55.828;37.488;2024-01-15T13:14:12;27.73;;;12.33;;
22632;SDS011;11483;55.828;37.488;2024-01-15T13:16:39;28.00;;;11.40;;
22632;SDS011;11483;55.828;37.488;2024-01-15T13:19:07;29.67;;;12.83;;
22632;SDS011;11483;55.828;37.488;2024-01-15T13:21:34;27.77;;;12.17;;
22632;SDS011;11483;55.828;37.488;2024-01-15T13:24:00;26.13;;;11.40;;
22632;SDS011;11483;55.828;37.488;2024-01-15T13:26:27;26.17;;;12.13;;
22632;SDS011;11483;55.828;37.488;2024-01-15T13:28:52;27.33;;;12.80;;
22632;SDS011;11483;55.828;37.488;2024-01-15T13:31:18;31.27;;;11.07;;
22632;SDS011;11483;55.828;37.488;2024-01-15T13:33:45;27.27;;;11.70;;
22632;SDS011;11483;55.828;37.488;2024-01-15T13:36:11;35.23;;;16.37;;
22632;SDS011;11483;55.828;37.488;2024-01-15T13:38:37;27.03;;;11.67;;
22632;SDS011;11483;55.828;37.488;2024-01-15T13:41:06;27.20;;;10.97;;
22632;SDS011;11483;55.828;37.488;2024-01-15T13:43:33;28.53;;;11.60;;
22632;SDS011;11483;55.828;37.488;2024-01-15T13:45:59;32.10;;;12.90;;
22632;SDS011;11483;55.828;37.488;2024-01-15T13:48:25;27.57;;;12.13;;
22632;SDS011;11483;55.828;37.488;2024-01-15T13:50:51;33.97;;;13.90;;
22632;SDS011;11483;55.828;37.488;2024-01-15T13:53:18;25.33;;;11.30;;
22632;SDS011;11483;55.828;37.488;2024-01-15T13:55:44;30.57;;;12.50;;
22632;SDS011;11483;55.828;37.488;2024-01-15T13:58:10;28.23;;;12.83;;
22632;SDS011;11483;55.828;37.488;2024-01-15T14:00:36;27.70;;;12.10;;
22632;SDS011;11483;55.828;37.488;2024-01-15T14:03:02;34.47;;;14.77;;
22632;SDS011;11483;55.828;37.488;2024-01-15T14:05:28;33.17;;;13.77;;
22632;SDS011;11483;55.828;37.488;2024-01-15T14:07:54;27.10;;;11.40;;
22632;SDS011;11483;55.828;37.488;2024-01-15T14:10:20;29.47;;;12.17;;
22632;SDS011;11483;55.828;37.488;2024-01-15T14:12:46;26.47;;;11.63;;
22632;SDS011;11483;55.828;37.488;2024-01-15T14:15:12;31.80;;;13.37;;
22632;SDS011;11483;55.828;37.488;2024-01-15T14:17:38;27.87;;;11.63;;
22632;SDS011;11483;55.828;37.488;2024-01-15T14:20:04;25.80;;;11.63;;
22632;SDS011;11483;55.828;37.488;2024-01-15T14:22:31;25.90;;;11.87;;
22632;SDS011;11483;55.828;37.488;2024-01-15T14:24:57;35.73;;;12.60;;
22632;SDS011;11483;55.828;37.488;2024-01-15T14:30:08;30.37;;;12.90;;
22632;SDS011;11483;55.828;37.488;2024-01-15T14:32:34;28.77;;;12.50;;
22632;SDS011;11483;55.828;37.488;2024-01-15T14:35:00;24.37;;;11.30;;
22632;SDS011;11483;55.828;37.488;2024-01-15T14:37:26;28.47;;;13.00;;
22632;SDS011;11483;55.828;37.488;2024-01-15T14:39:52;27.63;;;12.97;;